LFPM 271000Z AUTO 36007KT 330V070 CAVOK 29/22 Q1022

Sorties Club
belle sortie vers AMBOISE et chateau de CHAMBORD le 20/05/2017

Remerciements a Kevin et Valentin pour l'organisation de cette sortie et aux instructeurs pour l'encadrement



Chateau CHAMBORD photo Repas Amboise photo Amboise au sol photo
Chenonceau photo Patrouille photo Vu du ciel photo